Shirase — JSNJ — position and weather

sailwx.info

Track history (hours):
 
Tides and Currents Weather Stations Pressure Air Temp Water Temp Dewpoint Dewpoint Depression Visibility Wind Speed Wind Dir Waves Ship Positions

Shirase

Last reported at 2017-Nov-23 04:54 UTC. Time now 2018-Feb-21 09:19 UTC.
Position S 19°29' E 113°29'.
Warning: this ship's position is months out of date.

Length 138 m.

Type: Military. MMSI: 431999533.

Date/timePositionNaut miles runAvg speedWind from/ knotsBaromVisibWave heightAir tempDewpointWater temp
2017-Nov-23 04:54S 19°29' E 113°29'614.7
2017-Nov-23 04:29S 19°23' E 113°31'714.3
2017-Nov-23 04:00S 19°16' E 113°32'1213.8
2017-Nov-23 03:06S 19°04' E 113°35'113.8
2017-Nov-23 03:00S 19°03' E 113°35'713.7
2017-Nov-23 02:30S 18°56' E 113°36'3114.1
2017-Nov-23 00:17S 18°25' E 113°43'414.3
2017-Nov-23 00:00S 18°21' E 113°44'714.4
2017-Nov-22 23:29S 18°14' E 113°45'1014.6
2017-Nov-22 22:48S 18°04' E 113°47'514.9
2017-Nov-22 22:30S 17°60' E 113°48'714.8
2017-Nov-22 22:00S 17°53' E 113°49'1014.8
2017-Nov-22 21:17S 17°42' E 113°52'1414.6
2017-Nov-22 20:20S 17°29' E 113°54'514.8
2017-Nov-22 20:00S 17°24' E 113°55'  
Track history (hours):
 
Tides and Currents Weather Stations Pressure Air Temp Water Temp Dewpoint Dewpoint Depression Visibility Wind Speed Wind Dir Waves Ship Positions

Shirase

Last reported at 2017-Nov-23 04:54 UTC. Time now 2018-Feb-21 09:19 UTC.
Position S 19°29' E 113°29'.
Warning: this ship's position is months out of date.

Length 138 m.

Type: Military. MMSI: 431999533.

Date/timePositionNaut miles runAvg speedWind from/ knotsBaromVisibWave heightAir tempDewpointWater temp
2017-Nov-23 04:54S 19°29' E 113°29'614.7
2017-Nov-23 04:29S 19°23' E 113°31'714.3
2017-Nov-23 04:00S 19°16' E 113°32'1213.8
2017-Nov-23 03:06S 19°04' E 113°35'113.8
2017-Nov-23 03:00S 19°03' E 113°35'713.7
2017-Nov-23 02:30S 18°56' E 113°36'3114.1
2017-Nov-23 00:17S 18°25' E 113°43'414.3
2017-Nov-23 00:00S 18°21' E 113°44'714.4
2017-Nov-22 23:29S 18°14' E 113°45'1014.6
2017-Nov-22 22:48S 18°04' E 113°47'514.9
2017-Nov-22 22:30S 17°60' E 113°48'714.8
2017-Nov-22 22:00S 17°53' E 113°49'1014.8
2017-Nov-22 21:17S 17°42' E 113°52'1414.6
2017-Nov-22 20:20S 17°29' E 113°54'514.8
2017-Nov-22 20:00S 17°24' E 113°55'  

Dump ship's entire track history